Time;durP1;ratioP1;P1;durP2;ratioP2;P2;SDS_P1;SDS_P2;PMS_P1;PMS_P2;Temp;Humidity;BMP_temperature;BMP_pressure;BME280_temperature;BME280_humidity;BME280_pressure;Samples;Min_cycle;Max_cycle;Signal;HPM_P1;HPM_P2
2023/01/31 00:01:13;;;;;;;22.48;2.88;;;3.30;99.90;;;;;;5090074;28;20054;-83
2023/01/31 00:03:40;;;;;;;28.98;4.32;;;3.30;99.90;;;;;;5065090;28;20118;-84
2023/01/31 00:06:18;;;;;;;26.40;3.05;;;3.30;99.90;;;;;;5067230;28;20122;-83
2023/01/31 00:08:45;;;;;;;17.45;2.60;;;3.40;99.90;;;;;;5094893;28;20062;-84
2023/01/31 00:11:12;;;;;;;25.83;3.00;;;3.30;99.90;;;;;;5075355;28;20058;-84
2023/01/31 00:13:38;;;;;;;20.95;2.38;;;3.30;99.90;;;;;;5078993;28;20147;-86
2023/01/31 00:16:05;;;;;;;28.85;3.80;;;3.30;99.90;;;;;;5096345;28;20101;-84
2023/01/31 00:18:30;;;;;;;18.35;2.70;;;3.30;99.90;;;;;;5079987;28;20044;-84
2023/01/31 00:20:56;;;;;;;26.27;3.15;;;3.30;99.90;;;;;;5062404;28;20067;-84
2023/01/31 00:23:22;;;;;;;21.90;3.83;;;3.30;99.90;;;;;;5060607;28;20044;-84
2023/01/31 00:25:48;;;;;;;21.92;2.97;;;3.30;99.90;;;;;;5061756;28;20048;-87
2023/01/31 00:28:13;;;;;;;26.15;3.72;;;3.30;99.90;;;;;;5092394;28;20051;-84
2023/01/31 00:30:39;;;;;;;21.60;3.30;;;3.20;99.90;;;;;;5077193;28;20070;-87
2023/01/31 00:33:05;;;;;;;22.30;3.10;;;3.20;99.90;;;;;;5094852;28;20046;-84
2023/01/31 00:35:30;;;;;;;21.13;2.67;;;3.20;99.90;;;;;;5074619;28;20441;-84
2023/01/31 00:37:56;;;;;;;21.23;2.80;;;3.20;99.90;;;;;;5060934;28;20047;-83
2023/01/31 00:40:22;;;;;;;21.13;3.28;;;3.20;99.90;;;;;;5074502;28;20103;-84
2023/01/31 00:42:47;;;;;;;32.17;3.28;;;3.20;99.90;;;;;;5090128;28;20054;-84
2023/01/31 00:45:13;;;;;;;20.92;2.97;;;3.10;99.90;;;;;;5076963;28;20051;-85
2023/01/31 00:47:39;;;;;;;17.60;2.33;;;3.20;99.90;;;;;;5066462;28;20138;-85
2023/01/31 00:50:05;;;;;;;17.38;2.33;;;3.10;99.90;;;;;;5075411;28;20044;-86
2023/01/31 00:52:31;;;;;;;24.13;2.50;;;3.10;99.90;;;;;;5088202;28;20044;-85
2023/01/31 00:54:56;;;;;;;24.83;2.53;;;3.00;99.90;;;;;;5073549;28;20058;-83
2023/01/31 00:57:22;;;;;;;23.42;3.40;;;3.00;99.90;;;;;;5089269;28;20142;-85
2023/01/31 00:59:48;;;;;;;21.98;2.70;;;2.90;99.90;;;;;;5050566;28;20044;-85
2023/01/31 01:02:14;;;;;;;18.70;2.70;;;2.90;99.90;;;;;;5054501;28;20032;-84
2023/01/31 01:04:39;;;;;;;18.02;2.70;;;2.90;99.90;;;;;;5090233;28;20086;-85
2023/01/31 01:07:05;;;;;;;19.25;2.30;;;2.80;99.90;;;;;;5070043;28;20079;-84
2023/01/31 01:09:31;;;;;;;17.38;2.58;;;2.90;99.90;;;;;;5060147;28;20577;-84
2023/01/31 01:11:57;;;;;;;24.00;2.60;;;2.80;99.90;;;;;;5076403;28;20040;-84
2023/01/31 01:14:22;;;;;;;15.13;2.35;;;2.80;99.90;;;;;;5076626;28;20047;-84
2023/01/31 01:16:48;;;;;;;24.05;2.90;;;2.70;99.90;;;;;;5064693;28;20046;-85
2023/01/31 01:19:17;;;;;;;27.73;4.25;;;2.60;99.90;;;;;;5078140;28;20044;-84
2023/01/31 01:21:43;;;;;;;21.92;2.13;;;2.60;99.90;;;;;;5082340;28;20048;-84
2023/01/31 01:24:18;;;;;;;18.83;2.63;;;2.70;99.90;;;;;;5079360;27;20039;-85
2023/01/31 01:26:44;;;;;;;25.10;3.03;;;2.60;99.90;;;;;;5095495;28;20408;-85
2023/01/31 01:29:11;;;;;;;21.38;2.85;;;2.70;99.90;;;;;;5060609;28;20039;-84
2023/01/31 01:31:38;;;;;;;19.05;3.67;;;2.70;99.90;;;;;;5059043;28;20581;-85
2023/01/31 01:34:11;;;;;;;18.83;2.65;;;2.60;99.90;;;;;;5096127;28;20130;-83
2023/01/31 01:36:37;;;;;;;18.80;2.38;;;2.60;99.90;;;;;;5080208;28;20039;-83
2023/01/31 01:39:05;;;;;;;21.83;2.78;;;2.60;99.90;;;;;;5075860;28;20048;-84
2023/01/31 01:41:34;;;;;;;24.10;4.75;;;2.60;99.90;;;;;;5081169;28;20078;-84
2023/01/31 01:44:01;;;;;;;27.27;3.10;;;2.70;99.90;;;;;;5054560;28;20035;-84
2023/01/31 01:46:34;;;;;;;21.92;2.70;;;2.60;99.90;;;;;;5083934;28;20044;-84
2023/01/31 01:49:15;;;;;;;23.30;5.20;;;2.60;99.90;;;;;;5068088;28;20052;-84
2023/01/31 01:51:42;;;;;;;18.10;2.97;;;2.60;99.90;;;;;;5075979;28;20040;-84
2023/01/31 01:54:21;;;;;;;20.52;2.85;;;2.70;99.90;;;;;;5059315;28;20046;-85
2023/01/31 01:56:51;;;;;;;19.75;3.35;;;2.60;99.90;;;;;;5080209;28;20031;-86
2023/01/31 01:59:46;;;;;;;15.82;2.40;;;2.70;99.90;;;;;;5087732;28;20539;-83
2023/01/31 02:02:13;;;;;;;21.73;2.13;;;2.60;99.90;;;;;;5058792;28;20064;-86
2023/01/31 02:04:41;;;;;;;20.48;3.80;;;2.60;99.90;;;;;;5077360;28;20082;-87
2023/01/31 02:07:08;;;;;;;20.17;2.40;;;2.70;99.90;;;;;;5067404;28;20515;-83
2023/01/31 02:09:43;;;;;;;19.88;2.35;;;2.50;99.90;;;;;;5078528;28;20498;-84
2023/01/31 02:12:09;;;;;;;13.82;1.80;;;2.60;99.90;;;;;;5085792;28;20044;-84
2023/01/31 02:14:35;;;;;;;21.58;2.80;;;2.60;99.90;;;;;;5077131;28;20044;-84
2023/01/31 02:17:01;;;;;;;17.60;2.33;;;2.50;99.90;;;;;;5077421;28;20088;-84
2023/01/31 02:19:48;;;;;;;24.90;3.08;;;2.50;99.90;;;;;;5060212;28;20428;-85
2023/01/31 02:22:43;;;;;;;25.90;4.03;;;2.60;99.90;;;;;;5077090;28;20044;-84
2023/01/31 02:25:24;;;;;;;21.65;2.75;;;2.60;99.90;;;;;;5038728;28;20080;-84
2023/01/31 02:28:01;;;;;;;27.38;3.03;;;2.70;99.90;;;;;;5094829;28;20047;-84
2023/01/31 02:30:36;;;;;;;26.17;4.97;;;2.70;99.90;;;;;;5078191;28;20134;-84
2023/01/31 02:33:34;;;;;;;21.67;3.78;;;2.70;99.90;;;;;;5092898;28;20507;-86
2023/01/31 02:36:12;;;;;;;21.58;4.63;;;2.70;99.90;;;;;;5061314;28;20048;-84
2023/01/31 02:38:55;;;;;;;22.00;3.15;;;2.80;99.90;;;;;;5100471;28;20884;-85
2023/01/31 02:41:31;;;;;;;21.30;2.88;;;2.80;99.90;;;;;;5071521;28;20064;-84
2023/01/31 02:47:23;;;;;;;20.90;2.72;;;2.90;99.90;;;;;;5089429;28;20060;-84
2023/01/31 02:50:01;;;;;;;12.05;2.15;;;2.90;99.90;;;;;;5032102;28;20063;-84
2023/01/31 02:52:33;;;;;;;19.77;2.83;;;3.00;99.90;;;;;;5075041;28;20106;-83
2023/01/31 02:57:58;;;;;;;20.00;2.45;;;3.00;99.90;;;;;;5091284;28;20044;-84
2023/01/31 03:00:25;;;;;;;16.27;2.88;;;3.10;99.90;;;;;;5072275;28;20036;-83
2023/01/31 03:02:51;;;;;;;17.30;2.30;;;3.10;99.90;;;;;;5080230;28;20130;-83
2023/01/31 03:05:18;;;;;;;18.90;3.17;;;3.10;99.90;;;;;;5074520;28;20588;-83
2023/01/31 03:07:57;;;;;;;25.42;3.50;;;3.20;99.90;;;;;;5073262;28;20054;-84
2023/01/31 03:10:38;;;;;;;17.92;3.33;;;3.20;99.90;;;;;;5074103;28;20048;-83
2023/01/31 03:13:41;;;;;;;19.08;3.85;;;3.20;99.90;;;;;;5059789;28;20048;-85
2023/01/31 03:19:02;;;;;;;19.67;3.47;;;3.30;99.90;;;;;;5080852;28;20123;-87
2023/01/31 03:21:43;;;;;;;25.65;4.88;;;3.30;99.90;;;;;;5071669;28;20036;-83
2023/01/31 03:24:09;;;;;;;26.95;5.40;;;3.30;99.90;;;;;;5074468;28;20405;-83
2023/01/31 03:26:35;;;;;;;23.58;3.70;;;3.40;99.90;;;;;;5056995;28;20036;-84
2023/01/31 03:29:02;;;;;;;22.60;3.95;;;3.40;99.90;;;;;;5073270;28;20055;-86
2023/01/31 03:31:42;;;;;;;17.02;2.75;;;3.40;99.90;;;;;;5087956;28;20052;-84
2023/01/31 03:34:11;;;;;;;15.30;2.47;;;3.50;99.90;;;;;;5065995;28;20086;-83
2023/01/31 03:36:56;;;;;;;11.50;2.80;;;3.50;99.90;;;;;;5069485;28;20040;-84
2023/01/31 03:39:29;;;;;;;12.13;2.20;;;3.50;99.90;;;;;;5075212;28;20044;-84
2023/01/31 03:42:06;;;;;;;17.60;2.67;;;3.50;99.90;;;;;;5076407;28;20119;-84
2023/01/31 03:44:59;;;;;;;16.90;2.35;;;3.50;99.90;;;;;;5086340;28;20417;-84
2023/01/31 03:47:38;;;;;;;16.25;2.40;;;3.60;99.90;;;;;;5065360;28;20074;-84
2023/01/31 03:50:27;;;;;;;15.70;2.35;;;3.60;99.90;;;;;;5053882;28;20136;-90
2023/01/31 03:53:01;;;;;;;19.02;2.65;;;3.60;99.90;;;;;;5080674;28;20040;-84
2023/01/31 03:55:45;;;;;;;17.35;2.78;;;3.70;99.90;;;;;;5071152;28;20048;-83
2023/01/31 03:58:14;;;;;;;18.75;2.80;;;3.70;99.90;;;;;;5071402;28;20071;-83
2023/01/31 04:00:42;;;;;;;20.70;3.63;;;3.80;99.90;;;;;;5080722;28;20393;-84
2023/01/31 04:03:31;;;;;;;22.00;2.85;;;3.80;99.90;;;;;;5056669;28;20098;-84
2023/01/31 04:05:57;;;;;;;13.00;2.67;;;3.90;99.90;;;;;;5087488;28;20138;-84
2023/01/31 04:08:23;;;;;;;20.88;3.05;;;3.90;99.90;;;;;;5052731;28;20128;-86
2023/01/31 04:10:50;;;;;;;15.45;2.50;;;3.90;99.90;;;;;;5091178;28;20098;-83
2023/01/31 04:13:15;;;;;;;22.20;3.58;;;4.10;99.90;;;;;;5056510;28;20494;-84
2023/01/31 04:15:41;;;;;;;11.93;2.50;;;4.20;99.90;;;;;;5073012;28;20066;-83
2023/01/31 04:18:07;;;;;;;19.23;2.65;;;4.20;99.90;;;;;;5060804;28;20048;-86
2023/01/31 04:20:33;;;;;;;13.80;2.42;;;4.30;99.90;;;;;;5082250;28;20063;-84
2023/01/31 04:22:58;;;;;;;25.30;3.83;;;4.30;99.90;;;;;;5079020;28;20098;-84
2023/01/31 04:25:25;;;;;;;19.65;2.38;;;4.20;99.90;;;;;;5072764;28;20036;-84
2023/01/31 04:27:50;;;;;;;13.50;2.47;;;4.30;99.90;;;;;;5077287;28;20044;-84
2023/01/31 04:30:16;;;;;;;19.45;2.70;;;4.30;99.90;;;;;;5067053;28;20055;-84
2023/01/31 04:32:42;;;;;;;26.08;3.45;;;4.30;99.90;;;;;;5060127;28;20048;-84
2023/01/31 04:35:08;;;;;;;18.02;2.70;;;4.30;99.90;;;;;;5072527;28;20135;-87
2023/01/31 04:37:34;;;;;;;23.58;3.30;;;4.40;99.90;;;;;;5085439;28;20572;-83
2023/01/31 04:40:00;;;;;;;13.95;2.97;;;4.40;99.90;;;;;;5057626;28;20056;-84
2023/01/31 04:42:26;;;;;;;22.23;2.78;;;4.40;99.90;;;;;;5065858;28;20139;-83
2023/01/31 04:44:52;;;;;;;13.18;2.33;;;4.40;99.90;;;;;;5070190;28;20052;-85
2023/01/31 04:47:18;;;;;;;18.20;2.67;;;4.50;99.90;;;;;;5056808;28;20050;-83
2023/01/31 04:49:43;;;;;;;21.98;3.60;;;4.50;99.90;;;;;;5060647;28;20131;-84
2023/01/31 04:52:09;;;;;;;31.17;3.30;;;4.40;99.90;;;;;;5066756;28;20127;-83
2023/01/31 04:54:35;;;;;;;24.85;3.63;;;4.50;99.90;;;;;;5089438;28;20083;-88
2023/01/31 04:57:01;;;;;;;23.08;2.92;;;4.60;99.90;;;;;;5076701;28;20080;-82
2023/01/31 04:59:27;;;;;;;25.73;3.22;;;4.60;99.90;;;;;;5089242;28;20119;-84
2023/01/31 05:01:53;;;;;;;20.35;2.55;;;4.60;99.90;;;;;;5082776;28;20148;-86
2023/01/31 05:04:20;;;;;;;21.42;3.08;;;4.60;99.90;;;;;;5075630;28;20482;-83
2023/01/31 05:06:47;;;;;;;18.08;3.20;;;4.60;99.90;;;;;;5062250;28;20448;-83
2023/01/31 05:09:12;;;;;;;20.55;3.78;;;4.60;99.90;;;;;;5069032;28;20047;-83
2023/01/31 05:11:38;;;;;;;20.88;4.03;;;4.60;99.90;;;;;;5071011;28;20404;-84
2023/01/31 05:14:04;;;;;;;26.65;3.47;;;4.60;99.90;;;;;;5053515;28;20048;-84
2023/01/31 05:16:30;;;;;;;26.67;5.07;;;4.50;99.90;;;;;;5085741;28;20139;-84
2023/01/31 05:18:55;;;;;;;18.27;3.28;;;4.50;99.90;;;;;;5076400;28;20044;-84
2023/01/31 05:21:21;;;;;;;25.27;3.83;;;4.50;99.90;;;;;;5043354;28;20485;-83
2023/01/31 05:23:47;;;;;;;24.88;3.30;;;4.60;99.90;;;;;;5063692;28;20048;-84
2023/01/31 05:26:12;;;;;;;30.00;5.43;;;4.60;99.90;;;;;;5063506;28;20040;-92
2023/01/31 05:28:38;;;;;;;22.23;3.40;;;4.60;99.90;;;;;;5055828;28;20044;-83
2023/01/31 05:31:06;;;;;;;24.95;3.55;;;4.60;99.90;;;;;;5076926;28;20058;-83
2023/01/31 05:33:32;;;;;;;35.10;3.78;;;4.60;99.90;;;;;;5056663;28;20151;-84
2023/01/31 05:35:59;;;;;;;31.85;4.93;;;4.60;99.90;;;;;;5057430;28;20074;-86
2023/01/31 05:38:24;;;;;;;21.83;3.80;;;4.70;99.90;;;;;;5039518;28;20059;-86
2023/01/31 05:40:50;;;;;;;19.88;3.38;;;4.60;99.90;;;;;;5040832;28;20063;-84
2023/01/31 05:43:16;;;;;;;27.05;3.90;;;4.60;99.90;;;;;;5070924;28;20478;-84
2023/01/31 05:45:42;;;;;;;22.45;3.55;;;4.70;99.90;;;;;;5087663;28;20055;-84
2023/01/31 05:48:08;;;;;;;30.75;4.10;;;4.70;99.90;;;;;;5066434;28;20040;-83
2023/01/31 05:50:34;;;;;;;25.50;4.03;;;4.80;99.90;;;;;;5062443;28;20071;-84
2023/01/31 05:53:02;;;;;;;18.45;3.83;;;4.70;99.90;;;;;;5065073;28;20486;-84
2023/01/31 05:55:28;;;;;;;26.95;4.07;;;4.70;99.90;;;;;;5055292;28;20490;-84
2023/01/31 05:57:54;;;;;;;22.65;4.68;;;4.80;99.90;;;;;;5090365;28;20052;-84
2023/01/31 06:00:20;;;;;;;29.35;4.32;;;4.80;99.90;;;;;;5052619;28;20044;-83
2023/01/31 06:02:47;;;;;;;28.65;4.47;;;4.80;99.90;;;;;;5072199;28;20051;-83
2023/01/31 06:05:15;;;;;;;20.88;4.55;;;4.90;99.90;;;;;;5080159;28;20052;-82
2023/01/31 06:07:40;;;;;;;26.08;4.57;;;4.90;99.90;;;;;;5056587;28;20044;-82
2023/01/31 06:10:08;;;;;;;22.30;4.80;;;4.80;99.90;;;;;;5072548;28;20474;-82
2023/01/31 06:12:34;;;;;;;31.48;5.45;;;4.80;99.90;;;;;;5087165;28;20482;-83
2023/01/31 06:15:00;;;;;;;25.25;4.93;;;4.90;99.90;;;;;;5073814;28;20409;-83
2023/01/31 06:17:26;;;;;;;20.83;5.15;;;4.90;99.90;;;;;;5052965;28;20040;-83
2023/01/31 06:19:52;;;;;;;32.28;5.45;;;4.90;99.90;;;;;;5060665;28;20106;-83
2023/01/31 06:22:18;;;;;;;27.83;4.47;;;4.90;99.90;;;;;;5038383;28;20049;-83
2023/01/31 06:24:44;;;;;;;27.45;5.20;;;4.90;99.90;;;;;;5049357;28;20074;-84
2023/01/31 06:27:10;;;;;;;27.23;5.97;;;5.00;99.90;;;;;;5091498;28;20036;-84
2023/01/31 06:29:36;;;;;;;24.02;4.65;;;5.00;99.90;;;;;;5093123;28;20044;-82
2023/01/31 06:32:02;;;;;;;27.20;5.45;;;5.00;99.90;;;;;;5063150;28;20044;-83
2023/01/31 06:34:27;;;;;;;23.60;4.88;;;5.10;99.90;;;;;;5073338;28;20051;-83
2023/01/31 06:36:53;;;;;;;34.67;5.55;;;5.10;99.90;;;;;;5046529;28;20096;-82
2023/01/31 06:39:19;;;;;;;27.65;4.72;;;5.20;99.90;;;;;;5057591;28;20501;-83
2023/01/31 06:41:47;;;;;;;18.05;5.03;;;5.10;99.90;;;;;;5073873;28;20558;-84
2023/01/31 06:44:13;;;;;;;25.83;5.18;;;5.10;99.90;;;;;;5064076;28;20056;-83
2023/01/31 06:46:38;;;;;;;31.05;5.45;;;5.10;99.90;;;;;;5054476;28;20098;-83
2023/01/31 06:49:04;;;;;;;28.65;4.88;;;5.20;99.90;;;;;;5082355;28;20080;-82
2023/01/31 06:51:30;;;;;;;22.25;4.57;;;5.20;99.90;;;;;;5058610;28;20127;-82
2023/01/31 06:53:56;;;;;;;19.60;4.22;;;5.20;99.90;;;;;;5045241;28;20055;-81
2023/01/31 06:56:22;;;;;;;16.27;4.90;;;5.30;99.90;;;;;;5057602;28;20386;-81
2023/01/31 06:58:47;;;;;;;27.90;5.38;;;5.30;99.90;;;;;;5071610;28;20052;-80
2023/01/31 07:01:14;;;;;;;30.73;4.63;;;5.40;99.90;;;;;;5057724;28;20076;-83
2023/01/31 07:03:41;;;;;;;25.63;5.30;;;5.40;99.90;;;;;;5061343;28;20097;-81
2023/01/31 07:06:08;;;;;;;29.83;6.50;;;5.40;99.90;;;;;;5074091;28;20036;-87
2023/01/31 07:08:34;;;;;;;22.88;3.70;;;5.40;99.90;;;;;;5077270;28;20047;-83
2023/01/31 07:11:03;;;;;;;30.63;5.22;;;5.50;99.90;;;;;;5073811;28;20131;-84
2023/01/31 07:13:29;;;;;;;28.38;4.85;;;5.60;99.90;;;;;;5067109;28;20489;-84
2023/01/31 07:15:56;;;;;;;23.27;4.75;;;5.50;99.90;;;;;;5072679;28;20040;-84
2023/01/31 07:18:22;;;;;;;34.25;5.20;;;5.40;99.90;;;;;;5054736;28;20048;-84
2023/01/31 07:20:49;;;;;;;23.20;4.10;;;5.40;99.90;;;;;;5058550;28;20300;-85
2023/01/31 07:23:15;;;;;;;19.42;4.13;;;5.40;99.90;;;;;;5070840;28;20051;-84
2023/01/31 07:25:40;;;;;;;27.35;5.28;;;5.40;99.90;;;;;;5070151;28;20044;-84
2023/01/31 07:28:06;;;;;;;25.80;3.97;;;5.40;99.90;;;;;;5053121;28;20054;-84
2023/01/31 07:30:32;;;;;;;21.23;3.97;;;5.40;99.90;;;;;;5048350;28;20044;-87
2023/01/31 07:32:59;;;;;;;30.60;4.70;;;5.50;99.90;;;;;;5085495;28;20048;-83
2023/01/31 07:35:25;;;;;;;20.48;4.05;;;5.50;99.90;;;;;;5063692;28;20070;-84
2023/01/31 07:37:52;;;;;;;26.80;4.20;;;5.60;99.90;;;;;;5065904;28;20489;-84
2023/01/31 07:40:18;;;;;;;22.85;4.88;;;5.60;99.90;;;;;;5071329;28;20064;-84
2023/01/31 07:42:44;;;;;;;24.00;4.43;;;5.70;99.90;;;;;;5089178;28;20059;-84
2023/01/31 07:45:12;;;;;;;16.92;3.50;;;5.70;99.90;;;;;;5072274;28;20048;-84
2023/01/31 07:47:37;;;;;;;29.10;4.13;;;5.70;99.90;;;;;;5086738;28;20051;-84
2023/01/31 07:50:04;;;;;;;24.63;4.50;;;5.70;99.90;;;;;;5055620;28;20549;-84
2023/01/31 07:52:30;;;;;;;22.08;3.80;;;5.70;99.90;;;;;;5075982;28;20173;-84
2023/01/31 07:54:56;;;;;;;20.98;4.22;;;5.80;99.90;;;;;;5071821;28;20641;-84
2023/01/31 07:57:22;;;;;;;22.95;3.95;;;5.80;99.90;;;;;;5079075;28;20039;-83
2023/01/31 07:59:48;;;;;;;24.85;4.50;;;5.80;99.90;;;;;;5099547;28;20074;-85
2023/01/31 08:05:00;;;;;;;22.90;4.50;;;6.00;99.90;;;;;;5089992;28;20071;-83
2023/01/31 08:07:27;;;;;;;19.27;3.65;;;6.00;99.90;;;;;;5056949;28;20393;-83
2023/01/31 08:09:53;;;;;;;24.17;4.30;;;6.10;99.90;;;;;;5069496;28;20822;-85
2023/01/31 08:12:19;;;;;;;24.05;5.40;;;6.00;99.90;;;;;;5070947;28;20131;-84
2023/01/31 08:14:44;;;;;;;22.65;3.65;;;6.10;99.90;;;;;;5075505;28;20052;-84
2023/01/31 08:17:10;;;;;;;22.55;5.03;;;6.10;99.90;;;;;;5058567;28;20127;-84
2023/01/31 08:19:38;;;;;;;20.83;5.20;;;6.10;99.90;;;;;;5063794;28;20043;-83
2023/01/31 08:22:04;;;;;;;25.00;5.40;;;6.20;99.90;;;;;;5052952;28;20109;-83
2023/01/31 08:24:31;;;;;;;22.20;4.90;;;6.20;99.90;;;;;;5039617;28;20182;-83
2023/01/31 08:26:57;;;;;;;14.82;4.10;;;6.20;99.90;;;;;;5068467;28;20104;-83
2023/01/31 08:29:23;;;;;;;17.70;3.30;;;6.30;99.90;;;;;;5072716;28;20401;-83
2023/01/31 08:31:50;;;;;;;18.45;2.90;;;6.30;99.90;;;;;;5074591;28;20051;-83
2023/01/31 08:34:16;;;;;;;18.33;3.00;;;6.40;99.90;;;;;;5092664;28;20047;-83
2023/01/31 08:36:43;;;;;;;16.17;3.70;;;6.40;99.90;;;;;;5057098;28;20508;-85
2023/01/31 08:39:09;;;;;;;18.85;4.53;;;6.40;99.90;;;;;;5074418;28;20434;-84
2023/01/31 08:41:36;;;;;;;22.20;3.55;;;6.40;99.90;;;;;;5066289;28;20451;-83
2023/01/31 08:44:03;;;;;;;20.10;5.00;;;6.50;99.90;;;;;;5077910;28;20531;-84
2023/01/31 08:46:36;;;;;;;16.25;4.82;;;6.40;99.90;;;;;;5061552;28;20048;-84
2023/01/31 08:49:04;;;;;;;13.25;3.17;;;6.50;99.90;;;;;;5063224;28;20089;-83
2023/01/31 08:51:30;;;;;;;20.60;4.32;;;6.50;99.90;;;;;;5090372;28;20044;-83
2023/01/31 08:53:56;;;;;;;11.68;3.67;;;6.40;99.90;;;;;;5095603;28;20051;-84
2023/01/31 08:56:24;;;;;;;23.85;3.78;;;6.40;99.90;;;;;;5086694;28;20040;-83
2023/01/31 08:58:51;;;;;;;20.75;3.72;;;6.40;99.90;;;;;;5060751;28;20427;-84
2023/01/31 09:01:19;;;;;;;16.92;4.05;;;6.50;99.90;;;;;;5077717;28;20055;-83
2023/01/31 09:03:46;;;;;;;26.15;6.07;;;6.50;99.90;;;;;;5082594;28;20119;-87
2023/01/31 09:06:18;;;;;;;41.25;12.57;;;6.50;99.90;;;;;;5079068;28;20056;-83
2023/01/31 09:08:44;;;;;;;16.05;3.85;;;6.50;99.90;;;;;;5078334;28;20073;-83
2023/01/31 09:11:10;;;;;;;13.10;3.30;;;6.60;99.90;;;;;;5066806;28;20489;-83
2023/01/31 09:13:35;;;;;;;18.73;4.53;;;6.60;99.90;;;;;;5092490;28;20494;-83
2023/01/31 09:16:07;;;;;;;17.27;4.53;;;6.60;99.90;;;;;;5067469;28;20049;-83
2023/01/31 09:18:35;;;;;;;15.60;3.92;;;6.70;99.90;;;;;;5078153;28;20112;-83
2023/01/31 09:21:04;;;;;;;20.23;3.65;;;6.70;99.90;;;;;;5077853;28;20051;-83
2023/01/31 09:23:30;;;;;;;11.55;3.83;;;6.70;99.90;;;;;;5074410;28;20378;-83
2023/01/31 09:25:56;;;;;;;17.10;3.38;;;6.70;99.90;;;;;;5069555;28;20054;-83
2023/01/31 09:28:23;;;;;;;17.63;3.50;;;6.70;99.90;;;;;;5045181;28;20052;-84
2023/01/31 09:30:52;;;;;;;14.32;3.13;;;6.70;99.90;;;;;;5082718;28;20048;-85
2023/01/31 09:33:18;;;;;;;12.10;2.50;;;6.80;99.90;;;;;;5078244;28;20442;-83
2023/01/31 09:35:56;;;;;;;18.45;3.28;;;6.80;99.90;;;;;;5095502;28;20040;-84
2023/01/31 09:38:22;;;;;;;14.85;2.78;;;6.90;99.90;;;;;;5081857;28;20044;-83
2023/01/31 09:40:49;;;;;;;27.05;3.60;;;6.90;99.90;;;;;;5061456;28;20386;-86
2023/01/31 09:43:16;;;;;;;15.68;3.08;;;6.90;99.90;;;;;;5058480;28;20052;-84
2023/01/31 09:45:44;;;;;;;12.82;3.13;;;6.90;99.90;;;;;;5067535;28;20048;-83
2023/01/31 09:48:21;;;;;;;12.95;2.90;;;6.90;99.90;;;;;;5062293;28;20043;-84
2023/01/31 09:50:53;;;;;;;18.85;3.65;;;7.00;99.90;;;;;;5100699;28;20040;-84
2023/01/31 09:53:23;;;;;;;15.23;2.58;;;7.00;99.90;;;;;;5068643;28;20074;-84
2023/01/31 09:56:19;;;;;;;11.23;3.28;;;7.00;99.90;;;;;;5061451;28;20184;-84
2023/01/31 09:59:11;;;;;;;15.45;3.10;;;7.10;99.90;;;;;;5078246;28;20055;-84
2023/01/31 10:01:43;;;;;;;15.15;2.80;;;7.10;99.90;;;;;;5090424;28;20592;-84
2023/01/31 10:04:27;;;;;;;15.32;2.78;;;7.10;99.90;;;;;;5098855;28;20055;-84
2023/01/31 10:07:05;;;;;;;21.65;3.63;;;7.00;99.90;;;;;;5063556;28;20048;-87
2023/01/31 10:10:02;;;;;;;13.93;3.10;;;7.10;99.90;;;;;;5067951;28;20059;-84
2023/01/31 10:12:36;;;;;;;21.63;3.22;;;7.10;99.90;;;;;;5063815;28;20057;-84
2023/01/31 10:15:25;;;;;;;15.43;3.38;;;7.10;99.90;;;;;;5076403;28;20541;-84
2023/01/31 10:17:58;;;;;;;17.38;3.17;;;7.10;99.90;;;;;;5028053;28;20059;-84
2023/01/31 10:20:46;;;;;;;19.92;3.50;;;7.10;99.90;;;;;;5075985;28;20043;-85
2023/01/31 10:23:19;;;;;;;22.85;3.95;;;7.10;99.90;;;;;;5076973;28;20128;-84
2023/01/31 10:25:47;;;;;;;15.30;3.10;;;7.20;99.90;;;;;;5085299;28;20056;-84
2023/01/31 10:28:26;;;;;;;14.73;2.85;;;7.20;99.90;;;;;;5076229;28;20051;-84
2023/01/31 10:30:55;;;;;;;22.35;3.55;;;7.20;99.90;;;;;;5074538;28;20051;-84
2023/01/31 10:33:45;;;;;;;14.27;3.05;;;7.20;99.90;;;;;;5086934;28;20040;-84
2023/01/31 10:36:28;;;;;;;17.75;3.42;;;7.20;99.90;;;;;;5070557;28;20054;-84
2023/01/31 10:39:17;;;;;;;19.33;4.03;;;7.10;99.90;;;;;;5069297;28;20103;-85
2023/01/31 10:42:01;;;;;;;28.98;4.40;;;7.00;99.90;;;;;;5093276;28;20094;-84
2023/01/31 10:44:53;;;;;;;27.83;5.75;;;6.90;99.90;;;;;;5080226;28;20055;-83
2023/01/31 10:47:23;;;;;;;23.25;5.70;;;6.70;99.90;;;;;;5073614;28;20074;-85
2023/01/31 10:49:49;;;;;;;24.60;6.65;;;6.70;99.90;;;;;;5077125;28;20052;-84
2023/01/31 10:52:37;;;;;;;22.67;4.20;;;6.70;99.90;;;;;;5076056;28;20123;-84
2023/01/31 10:55:29;;;;;;;25.38;5.72;;;6.60;99.90;;;;;;5076527;28;20393;-84
2023/01/31 10:57:56;;;;;;;22.88;5.80;;;6.60;99.90;;;;;;5074027;28;20137;-84
2023/01/31 11:00:28;;;;;;;24.48;7.00;;;6.60;99.90;;;;;;5076451;28;20044;-84
2023/01/31 11:02:53;;;;;;;26.23;6.47;;;6.50;99.90;;;;;;5077308;28;20409;-84
2023/01/31 11:05:23;;;;;;;19.40;4.85;;;6.50;99.90;;;;;;5027031;28;20051;-83
2023/01/31 11:07:49;;;;;;;17.10;5.40;;;6.60;99.90;;;;;;5067717;28;20051;-84
2023/01/31 11:10:30;;;;;;;24.23;5.95;;;6.50;99.90;;;;;;5072941;28;20044;-82
2023/01/31 11:13:03;;;;;;;29.27;6.50;;;6.50;99.90;;;;;;5093972;28;20039;-83
2023/01/31 11:15:35;;;;;;;35.90;6.15;;;6.60;99.90;;;;;;5072909;28;20044;-83
2023/01/31 11:18:01;;;;;;;25.75;5.82;;;6.60;99.90;;;;;;5094007;28;20053;-83
2023/01/31 11:20:30;;;;;;;29.55;5.72;;;6.60;99.90;;;;;;5088936;28;20040;-84
2023/01/31 11:22:58;;;;;;;22.25;5.00;;;6.60;99.90;;;;;;5063969;28;20052;-84
2023/01/31 11:25:27;;;;;;;16.20;3.58;;;6.70;99.90;;;;;;5071804;28;20040;-83
2023/01/31 11:27:57;;;;;;;34.65;6.70;;;6.70;99.90;;;;;;5102050;28;20050;-85
2023/01/31 11:30:31;;;;;;;25.30;5.38;;;6.70;99.90;;;;;;5061957;28;20088;-83
2023/01/31 11:32:58;;;;;;;23.38;5.30;;;6.70;99.90;;;;;;5085121;28;20050;-83
2023/01/31 11:35:32;;;;;;;25.42;4.82;;;6.70;99.90;;;;;;5081171;28;20070;-85
2023/01/31 11:38:10;;;;;;;27.55;3.75;;;6.80;99.90;;;;;;5061974;28;20050;-83
2023/01/31 11:40:38;;;;;;;26.30;6.05;;;6.80;99.90;;;;;;5088714;28;20123;-82
2023/01/31 11:43:20;;;;;;;18.83;4.97;;;6.70;99.90;;;;;;5074733;28;20543;-83
2023/01/31 11:45:55;;;;;;;21.77;4.72;;;6.80;99.90;;;;;;5061990;28;20058;-83
2023/01/31 11:48:31;;;;;;;25.30;4.85;;;6.80;99.90;;;;;;5075034;28;20043;-83
2023/01/31 11:51:00;;;;;;;35.05;7.63;;;6.80;99.90;;;;;;5075040;28;20050;-84
2023/01/31 11:53:37;;;;;;;30.00;4.82;;;6.70;99.90;;;;;;5063238;28;20044;-84
2023/01/31 11:56:33;;;;;;;23.77;4.68;;;6.80;99.90;;;;;;5068443;28;20052;-83
2023/01/31 11:59:06;;;;;;;26.23;6.22;;;6.70;99.90;;;;;;5071633;28;20059;-84
2023/01/31 12:01:42;;;;;;;28.30;4.40;;;6.70;99.90;;;;;;5096205;28;20055;-84
2023/01/31 12:04:16;;;;;;;27.73;6.07;;;6.70;99.90;;;;;;5080767;28;20130;-82
2023/01/31 12:06:56;;;;;;;24.38;4.60;;;6.70;99.90;;;;;;5063852;28;20074;-82
2023/01/31 12:09:29;;;;;;;21.67;6.15;;;6.70;99.90;;;;;;5083214;28;20043;-83
2023/01/31 12:11:58;;;;;;;26.02;5.20;;;6.80;99.90;;;;;;5082497;28;20043;-83
2023/01/31 12:14:40;;;;;;;27.83;5.00;;;6.80;99.90;;;;;;5070824;28;20040;-84
2023/01/31 12:17:12;;;;;;;22.58;4.95;;;6.90;99.90;;;;;;5075037;28;20040;-83
2023/01/31 12:20:13;;;;;;;28.92;4.18;;;7.00;99.90;;;;;;5088686;28;20060;-83
2023/01/31 12:23:19;;;;;;;22.40;3.80;;;7.00;99.90;;;;;;5079710;28;20059;-83
2023/01/31 12:25:55;;;;;;;21.67;3.85;;;7.10;99.90;;;;;;5024294;28;20049;-84
2023/01/31 12:28:52;;;;;;;28.90;4.95;;;7.10;99.90;;;;;;5091635;28;20044;-83
2023/01/31 12:31:33;;;;;;;21.35;4.30;;;7.10;99.90;;;;;;5064468;28;20052;-83
2023/01/31 12:34:10;;;;;;;25.52;5.53;;;7.20;99.90;;;;;;5070740;28;20052;-84
2023/01/31 12:36:42;;;;;;;18.95;4.38;;;7.30;99.90;;;;;;5079110;28;20043;-82
2023/01/31 12:39:35;;;;;;;25.90;6.10;;;7.30;99.90;;;;;;5084393;28;20493;-83
2023/01/31 12:42:23;;;;;;;26.92;5.95;;;7.40;99.90;;;;;;5073250;28;20052;-84
2023/01/31 12:44:55;;;;;;;19.67;3.92;;;7.50;99.90;;;;;;5076090;28;20237;-84
2023/01/31 12:48:03;;;;;;;21.98;4.93;;;7.50;99.90;;;;;;5062045;28;20044;-84
2023/01/31 12:50:36;;;;;;;26.60;3.67;;;7.50;99.90;;;;;;5065025;28;20536;-84
2023/01/31 12:53:35;;;;;;;22.15;4.05;;;7.60;99.90;;;;;;5085995;28;20095;-83
2023/01/31 12:56:18;;;;;;;24.30;4.88;;;7.70;99.90;;;;;;5090440;28;20047;-84
2023/01/31 12:59:13;;;;;;;16.88;3.35;;;7.80;99.90;;;;;;5062549;28;20048;-84
2023/01/31 13:02:19;;;;;;;18.45;2.90;;;7.90;99.90;;;;;;5033438;28;20060;-84
2023/01/31 13:04:54;;;;;;;20.77;3.42;;;7.90;99.90;;;;;;5037353;28;20068;-84
2023/01/31 13:07:33;;;;;;;21.42;3.17;;;7.90;99.90;;;;;;5069817;28;20047;-83
2023/01/31 13:10:02;;;;;;;15.57;3.33;;;8.00;99.90;;;;;;5071359;28;20064;-84
2023/01/31 13:12:31;;;;;;;15.48;3.38;;;8.10;99.90;;;;;;5089168;28;20047;-83
2023/01/31 13:15:03;;;;;;;17.77;3.70;;;8.10;99.90;;;;;;5078912;28;20052;-86
2023/01/31 13:17:32;;;;;;;20.77;3.15;;;8.00;99.90;;;;;;5083835;28;20127;-87
2023/01/31 13:20:04;;;;;;;16.15;3.05;;;8.00;99.90;;;;;;5085524;28;20124;-83